Buffalo Range, Zimbabwe
Current Conditions -  °F | °C
As of 8:00 AM on Wednesday 22 Oct 2014 (Local Time) from FVHA Reporting Station
Clear Clear  
Wind Chill: 70°   Ceiling: Unl
Heat Index: 70°   Visibility: 6mi
Dew Point: 52°   Wind: 9mph
Humidity: 53%   Direction: 110°ESE
Pressure: 30.33"   Gusts: NA
Location:  21.02°S, 31.53°E
Report Text: FVHA 220600Z 11008KT 090V150 CAVOK 21/11 Q1027 NOSIG
Loading
Personal Weather Stations






























Interactive Weather Map
Tropical Storm Tracking
New forecast layout! Learn more

10-Day Weather Forecast

Advertisements
Track Severe Weather on mobile